Startpagina
METAR-TAF:

METAR-TAF

Vliegvelden :

Iranshahr, Iran

breedte: 27-12N, lengte: 060-42E, hoogte: 591 m

Actueel weer

Dit bericht is 1 uur en het 16 minuten geleden gemaakt, om 02:00 UTC
Wind 6 kt uit het zuiden
Temperatuur 16°C
Vochtigheid 63%
Druk 1017 hPa
Zicht 10 km of meer
geen wolken onder 1500 m en geen cumulonimbus

METAR: OIZI 240200Z 17006KT CAVOK 16/09 Q1017

Tijdstip: 06:46 (03:16 UTC)


TAF: ontbreekt

Waarnemingen en weersverwachtingen van meer dan 4000 vliegvelden (METAR en TAF).

De beschikbare stations zijn de gele en rode punten op de kaart.

Ga met uw muis naar het station om de naam te zien.

Klik dan om waarnemingen en weersverwachtingen te zien.

kaart wijzigen: klik op de groene knoppen met een zwart kruis om in te zoomen, op de groene knop met een streepje om uit te zoomen of op de groene pijlen voor aangrenzende kaarten.


METAR-TAF: